Terminal Aerodrome Forecast
Issued by NWS

Home | Current Version | Previous Version | Text Only | Print | Product List | Glossary On
Versions: 1 2 3 4 5 6 7 8 9 10 11 12 13
000
FTUS45 KRIW 261700
TAFRKS
TAF
KRKS 261722Z 2618/2718 28024G32KT P6SM FEW200
     FM270300 28016KT P6SM SKC
     FM270700 27010KT P6SM SKC=

USA.gov is the U.S. government's official web portal to all federal, state and local government web resources and services.